Time;durP1;ratioP1;P1;durP2;ratioP2;P2;SDS_P1;SDS_P2;PMS_P1;PMS_P2;Temp;Humidity;BMP_temperature;BMP_pressure;BME280_temperature;BME280_humidity;BME280_pressure;Samples;Min_cycle;Max_cycle;Signal;HPM_P1;HPM_P2
2024/01/06 00:01:56;;;;;;;28.65;17.85;;;4.80;99.90;;;;;;5077028;28;20221;-64
2024/01/06 00:04:23;;;;;;;24.98;17.05;;;4.80;99.90;;;;;;5074946;28;20501;-65
2024/01/06 00:06:49;;;;;;;28.75;17.30;;;4.80;99.90;;;;;;5074471;28;20679;-65
2024/01/06 00:09:16;;;;;;;27.80;17.95;;;4.80;99.90;;;;;;5077227;28;20570;-65
2024/01/06 00:11:43;;;;;;;23.33;16.08;;;4.80;99.90;;;;;;5077815;28;20736;-64
2024/01/06 00:14:11;;;;;;;24.52;16.35;;;4.80;99.90;;;;;;5075220;28;20223;-65
2024/01/06 00:16:38;;;;;;;27.58;19.38;;;4.90;99.90;;;;;;5074443;28;20207;-64
2024/01/06 00:19:04;;;;;;;26.98;17.20;;;4.90;99.90;;;;;;5073843;28;20221;-66
2024/01/06 00:21:31;;;;;;;24.35;15.75;;;4.90;99.90;;;;;;5073585;28;20217;-66
2024/01/06 00:23:58;;;;;;;25.88;16.55;;;4.90;99.90;;;;;;5073744;28;20295;-65
2024/01/06 00:26:25;;;;;;;24.33;15.77;;;4.80;99.90;;;;;;5074253;28;20201;-65
2024/01/06 00:28:52;;;;;;;27.88;17.10;;;4.80;99.90;;;;;;5075978;28;20203;-65
2024/01/06 00:31:20;;;;;;;23.23;15.43;;;4.80;99.90;;;;;;5077376;28;20231;-65
2024/01/06 00:33:47;;;;;;;27.60;17.00;;;4.80;99.90;;;;;;5077785;28;20209;-66
2024/01/06 00:36:14;;;;;;;22.05;15.02;;;4.90;99.90;;;;;;5078134;28;20197;-65
2024/01/06 00:38:41;;;;;;;24.80;15.48;;;4.80;99.90;;;;;;5077679;28;20220;-66
2024/01/06 00:41:07;;;;;;;25.98;15.35;;;4.80;99.90;;;;;;5077257;28;20248;-65
2024/01/06 00:43:34;;;;;;;24.55;16.45;;;4.80;99.90;;;;;;5077560;28;20207;-65
2024/01/06 00:46:01;;;;;;;24.55;16.45;;;4.80;99.90;;;;;;5077453;28;20197;-64
2024/01/06 00:48:29;;;;;;;25.17;17.27;;;4.80;99.90;;;;;;5077065;28;20201;-64
2024/01/06 00:50:56;;;;;;;26.98;15.60;;;4.80;99.90;;;;;;5077294;28;20204;-64
2024/01/06 00:53:23;;;;;;;23.63;16.13;;;4.70;99.90;;;;;;5077405;28;20200;-65
2024/01/06 00:55:49;;;;;;;21.00;15.13;;;4.70;99.90;;;;;;5077108;28;20231;-65
2024/01/06 00:58:16;;;;;;;25.48;15.73;;;4.70;99.90;;;;;;5076601;28;20694;-63
2024/01/06 01:00:43;;;;;;;22.40;16.08;;;4.70;99.90;;;;;;5076897;28;20201;-65
2024/01/06 01:03:10;;;;;;;21.23;15.52;;;4.60;99.90;;;;;;5077019;28;20227;-65
2024/01/06 01:05:38;;;;;;;23.08;16.45;;;4.60;99.90;;;;;;5076639;28;20197;-65
2024/01/06 01:08:05;;;;;;;21.00;14.57;;;4.60;99.90;;;;;;5077302;28;20203;-65
2024/01/06 01:10:32;;;;;;;24.25;15.90;;;4.60;99.90;;;;;;5076681;28;20201;-62
2024/01/06 01:12:59;;;;;;;23.10;15.40;;;4.60;99.90;;;;;;5076772;28;20225;-65
2024/01/06 01:15:26;;;;;;;21.83;15.07;;;4.70;99.90;;;;;;5077870;28;20207;-66
2024/01/06 01:17:52;;;;;;;24.88;15.60;;;4.70;99.90;;;;;;5076520;28;20216;-64
2024/01/06 01:20:19;;;;;;;24.85;16.33;;;4.70;99.90;;;;;;5077328;28;20197;-64
2024/01/06 01:22:47;;;;;;;22.55;14.77;;;4.70;99.90;;;;;;5077026;28;20221;-65
2024/01/06 01:25:14;;;;;;;20.90;15.80;;;4.70;99.90;;;;;;5076855;28;20196;-64
2024/01/06 01:27:41;;;;;;;23.40;15.25;;;4.60;99.90;;;;;;5076582;28;20205;-65
2024/01/06 01:30:09;;;;;;;25.42;15.90;;;4.70;99.90;;;;;;5076813;28;20205;-65
2024/01/06 01:32:35;;;;;;;24.65;16.17;;;4.70;99.90;;;;;;5076461;28;20588;-65
2024/01/06 01:35:03;;;;;;;21.55;15.18;;;4.70;99.90;;;;;;5076477;28;20554;-65
2024/01/06 01:37:29;;;;;;;22.60;15.05;;;4.60;99.90;;;;;;5076739;28;20309;-65
2024/01/06 01:39:57;;;;;;;22.33;15.80;;;4.70;99.90;;;;;;5075906;28;20207;-65
2024/01/06 01:42:23;;;;;;;23.50;15.10;;;4.70;99.90;;;;;;5081162;28;20220;-66
2024/01/06 01:44:50;;;;;;;25.52;16.38;;;4.70;99.90;;;;;;5089281;28;20269;-65
2024/01/06 01:47:18;;;;;;;21.95;15.40;;;4.70;99.90;;;;;;5086866;28;20681;-65
2024/01/06 01:49:46;;;;;;;23.55;15.60;;;4.70;99.90;;;;;;5090258;28;20197;-65
2024/01/06 01:52:14;;;;;;;26.13;15.75;;;4.70;99.90;;;;;;5089952;28;20284;-65
2024/01/06 01:54:41;;;;;;;24.88;16.70;;;4.70;99.90;;;;;;5089390;28;20201;-65
2024/01/06 01:57:11;;;;;;;24.75;16.02;;;4.60;99.90;;;;;;5085119;28;20211;-65
2024/01/06 01:59:37;;;;;;;21.27;15.55;;;4.60;99.90;;;;;;5086804;28;20217;-65
2024/01/06 02:02:05;;;;;;;25.30;15.85;;;4.60;99.90;;;;;;5086937;28;20231;-65
2024/01/06 02:04:32;;;;;;;23.70;14.90;;;4.60;99.90;;;;;;5086327;28;20667;-65
2024/01/06 02:06:58;;;;;;;23.23;15.18;;;4.60;99.90;;;;;;5086490;28;20207;-65
2024/01/06 02:09:28;;;;;;;25.58;18.15;;;4.50;99.90;;;;;;5078964;28;20215;-65
2024/01/06 02:11:55;;;;;;;26.95;16.30;;;4.50;99.90;;;;;;5075397;28;20236;-65
2024/01/06 02:14:23;;;;;;;22.70;15.70;;;4.50;99.90;;;;;;5075662;28;20209;-65
2024/01/06 02:16:50;;;;;;;27.00;16.85;;;4.50;99.90;;;;;;5075555;28;20205;-64
2024/01/06 02:19:17;;;;;;;24.90;16.05;;;4.50;99.90;;;;;;5075557;28;20699;-65
2024/01/06 02:21:46;;;;;;;26.00;16.73;;;4.60;99.90;;;;;;5075790;28;20217;-65
2024/01/06 02:24:14;;;;;;;26.25;17.00;;;4.60;99.90;;;;;;5075895;28;20604;-64
2024/01/06 02:26:41;;;;;;;21.17;14.90;;;4.60;99.90;;;;;;5075922;28;20291;-66
2024/01/06 02:29:07;;;;;;;24.63;15.48;;;4.60;99.90;;;;;;5076400;28;20197;-65
2024/01/06 02:31:34;;;;;;;23.00;15.85;;;4.60;99.90;;;;;;5075793;28;20228;-64
2024/01/06 02:34:01;;;;;;;24.45;15.50;;;4.60;99.90;;;;;;5076112;28;20212;-65
2024/01/06 02:36:27;;;;;;;25.02;15.20;;;4.60;99.90;;;;;;5075412;28;20212;-65
2024/01/06 02:38:54;;;;;;;23.92;15.55;;;4.60;99.90;;;;;;5075575;28;20216;-66
2024/01/06 02:41:22;;;;;;;24.90;15.70;;;4.60;99.90;;;;;;5074977;28;20217;-65
2024/01/06 02:43:49;;;;;;;23.95;16.15;;;4.50;99.90;;;;;;5074791;28;20687;-65
2024/01/06 02:46:16;;;;;;;23.55;15.35;;;4.50;99.90;;;;;;5075619;28;20227;-66
2024/01/06 02:48:43;;;;;;;21.52;15.25;;;4.50;99.90;;;;;;5074940;28;20554;-66
2024/01/06 02:51:11;;;;;;;26.55;15.30;;;4.50;99.90;;;;;;5073786;28;20577;-65
2024/01/06 02:53:38;;;;;;;23.45;15.68;;;4.60;99.90;;;;;;5074862;28;20296;-65
2024/01/06 02:56:10;;;;;;;18.05;14.55;;;4.50;99.90;;;;;;5074926;28;20205;-65
2024/01/06 02:58:38;;;;;;;26.27;15.13;;;4.50;99.90;;;;;;5074759;28;20690;-64
2024/01/06 03:01:05;;;;;;;22.70;14.93;;;4.60;99.90;;;;;;5076091;28;20219;-65
2024/01/06 03:03:31;;;;;;;24.08;15.88;;;4.50;99.90;;;;;;5077349;28;20201;-64
2024/01/06 03:05:58;;;;;;;19.08;14.18;;;4.50;99.90;;;;;;5081489;28;20204;-65
2024/01/06 03:08:25;;;;;;;21.70;15.25;;;4.50;99.90;;;;;;5080425;28;20197;-65
2024/01/06 03:10:52;;;;;;;24.73;15.43;;;4.50;99.90;;;;;;5079493;28;20205;-65
2024/01/06 03:13:19;;;;;;;22.83;14.07;;;4.50;99.90;;;;;;5084431;28;20200;-65
2024/01/06 03:15:47;;;;;;;24.05;14.93;;;4.50;99.90;;;;;;5086632;28;20283;-65
2024/01/06 03:18:13;;;;;;;22.67;14.48;;;4.40;99.90;;;;;;5086047;28;20220;-64
2024/01/06 03:20:40;;;;;;;23.50;14.85;;;4.50;99.90;;;;;;5092425;28;20211;-66
2024/01/06 03:23:07;;;;;;;24.90;14.95;;;4.50;99.90;;;;;;5093118;28;20288;-66
2024/01/06 03:25:34;;;;;;;25.08;14.85;;;4.50;99.90;;;;;;5093235;28;20201;-64
2024/01/06 03:28:00;;;;;;;23.73;15.57;;;4.40;99.90;;;;;;5076040;28;20282;-64
2024/01/06 03:30:27;;;;;;;22.23;14.20;;;4.50;99.90;;;;;;5074443;28;20205;-64
2024/01/06 03:32:55;;;;;;;27.75;13.95;;;4.40;99.90;;;;;;5074784;28;20296;-64
2024/01/06 03:35:22;;;;;;;21.90;14.40;;;4.40;99.90;;;;;;5076232;28;20533;-65
2024/01/06 03:37:49;;;;;;;27.67;15.65;;;4.40;99.90;;;;;;5074347;28;20671;-65
2024/01/06 03:40:16;;;;;;;20.92;14.35;;;4.40;99.90;;;;;;5074701;28;20205;-66
2024/01/06 03:42:43;;;;;;;23.25;15.48;;;4.50;99.90;;;;;;5074177;28;20225;-65
2024/01/06 03:45:10;;;;;;;24.30;15.90;;;4.40;99.90;;;;;;5074145;28;20201;-64
2024/01/06 03:47:37;;;;;;;23.38;14.60;;;4.50;99.90;;;;;;5074004;28;20581;-66
2024/01/06 03:50:05;;;;;;;23.20;15.70;;;4.50;99.90;;;;;;5073933;28;20236;-63
2024/01/06 03:52:32;;;;;;;21.55;15.23;;;4.50;99.90;;;;;;5073625;28;20597;-64
2024/01/06 03:54:59;;;;;;;20.40;14.30;;;4.50;99.90;;;;;;5074373;28;20205;-65
2024/01/06 03:57:26;;;;;;;23.40;14.10;;;4.40;99.90;;;;;;5074231;28;20578;-64
2024/01/06 03:59:53;;;;;;;24.58;13.52;;;4.40;99.90;;;;;;5073442;28;20539;-64
2024/01/06 04:02:19;;;;;;;27.52;15.77;;;4.30;99.90;;;;;;5073575;28;20232;-64
2024/01/06 04:04:46;;;;;;;22.98;15.35;;;4.30;99.90;;;;;;5073947;28;20201;-64
2024/01/06 04:07:14;;;;;;;27.50;14.85;;;4.30;99.90;;;;;;5073320;28;20668;-65
2024/01/06 04:12:56;;;;;;;25.73;15.90;;;4.30;99.90;;;;;;5091905;27;20569;-64
2024/01/06 04:15:23;;;;;;;26.25;16.23;;;4.30;99.90;;;;;;5091277;28;20196;-64
2024/01/06 04:17:50;;;;;;;27.45;15.27;;;4.20;99.90;;;;;;5092068;28;20196;-64
2024/01/06 04:20:17;;;;;;;24.88;15.25;;;4.20;99.90;;;;;;5091540;28;20206;-65
2024/01/06 04:22:44;;;;;;;25.48;15.82;;;4.10;99.90;;;;;;5090886;28;20220;-65
2024/01/06 04:25:11;;;;;;;23.30;14.45;;;4.10;99.90;;;;;;5091605;28;20257;-64
2024/01/06 04:27:38;;;;;;;28.33;16.27;;;4.10;99.90;;;;;;5091535;28;20207;-65
2024/01/06 04:30:07;;;;;;;31.00;15.77;;;4.10;99.90;;;;;;5090909;28;20207;-66
2024/01/06 04:32:34;;;;;;;27.38;16.67;;;4.10;99.90;;;;;;5090320;28;20231;-65
2024/01/06 04:35:00;;;;;;;27.38;16.45;;;4.10;99.90;;;;;;5092059;28;20287;-65
2024/01/06 04:37:27;;;;;;;28.45;16.58;;;4.10;99.90;;;;;;5094212;28;20207;-65
2024/01/06 04:39:54;;;;;;;28.83;18.38;;;4.10;99.90;;;;;;5091487;28;20215;-65
2024/01/06 04:42:22;;;;;;;27.55;16.05;;;4.10;99.90;;;;;;5091341;28;20223;-65
2024/01/06 04:44:49;;;;;;;30.20;15.88;;;4.10;99.90;;;;;;5092420;28;20197;-64
2024/01/06 04:47:17;;;;;;;24.88;15.02;;;4.10;99.90;;;;;;5092649;28;20208;-65
2024/01/06 04:49:44;;;;;;;23.70;15.93;;;4.10;99.90;;;;;;5091467;28;20203;-66
2024/01/06 04:52:11;;;;;;;30.33;16.52;;;4.10;99.90;;;;;;5092955;28;20308;-65
2024/01/06 04:54:38;;;;;;;28.52;16.13;;;4.10;99.90;;;;;;5092882;28;20197;-65
2024/01/06 04:57:05;;;;;;;27.27;16.20;;;4.10;99.90;;;;;;5092258;28;20207;-65
2024/01/06 04:59:32;;;;;;;25.92;14.77;;;4.10;99.90;;;;;;5092176;28;20214;-64
2024/01/06 05:01:59;;;;;;;25.52;14.50;;;4.10;99.90;;;;;;5091957;28;20235;-64
2024/01/06 05:04:27;;;;;;;30.15;15.88;;;4.10;99.90;;;;;;5095059;28;20200;-64
2024/01/06 05:06:54;;;;;;;26.60;15.63;;;4.10;99.90;;;;;;5092495;28;20204;-64
2024/01/06 05:09:21;;;;;;;26.98;15.40;;;4.10;99.90;;;;;;5096167;28;20201;-64
2024/01/06 05:11:48;;;;;;;24.25;15.07;;;4.10;99.90;;;;;;5094759;28;20225;-65
2024/01/06 05:14:14;;;;;;;25.10;15.95;;;4.10;99.90;;;;;;5094677;28;20200;-64
2024/01/06 05:16:42;;;;;;;24.23;15.85;;;4.00;99.90;;;;;;5094285;28;20210;-63
2024/01/06 05:19:08;;;;;;;26.75;16.40;;;4.10;99.90;;;;;;5092142;28;20314;-63
2024/01/06 05:21:37;;;;;;;23.00;14.80;;;4.10;99.90;;;;;;5092085;28;20597;-65
2024/01/06 05:24:04;;;;;;;26.00;15.77;;;4.10;99.90;;;;;;5080727;28;20203;-65
2024/01/06 05:26:31;;;;;;;28.33;16.30;;;4.00;99.90;;;;;;5080049;28;20201;-65
2024/01/06 05:28:58;;;;;;;25.70;15.13;;;4.10;99.90;;;;;;5078645;28;20207;-65
2024/01/06 05:31:25;;;;;;;24.92;14.60;;;4.00;99.90;;;;;;5079589;28;20243;-65
2024/01/06 05:33:51;;;;;;;21.63;14.50;;;4.00;99.90;;;;;;5078809;28;20240;-63
2024/01/06 05:36:20;;;;;;;26.98;15.48;;;4.00;99.90;;;;;;5077502;28;20212;-65
2024/01/06 05:38:49;;;;;;;25.58;15.57;;;4.00;99.90;;;;;;5078026;28;20212;-65
2024/01/06 05:41:15;;;;;;;26.65;16.00;;;4.10;99.90;;;;;;5077909;28;20299;-63
2024/01/06 05:43:42;;;;;;;26.80;15.85;;;4.10;99.90;;;;;;5078012;28;20209;-64
2024/01/06 05:46:10;;;;;;;28.60;16.45;;;4.10;99.90;;;;;;5078510;28;20197;-65
2024/01/06 05:48:37;;;;;;;25.45;14.73;;;4.10;99.90;;;;;;5077878;28;20209;-64
2024/01/06 05:51:05;;;;;;;30.38;17.13;;;4.00;99.90;;;;;;5079173;28;20564;-65
2024/01/06 05:53:32;;;;;;;25.90;15.57;;;4.00;99.90;;;;;;5078252;28;20209;-64
2024/01/06 05:56:00;;;;;;;29.20;15.40;;;4.00;99.90;;;;;;5077715;28;20239;-65
2024/01/06 05:58:27;;;;;;;27.50;15.38;;;4.00;99.90;;;;;;5079098;28;20219;-66
2024/01/06 06:00:54;;;;;;;27.92;15.73;;;4.00;99.90;;;;;;5076145;28;20214;-64
2024/01/06 06:03:20;;;;;;;27.80;15.88;;;4.00;99.90;;;;;;5075947;28;20205;-64
2024/01/06 06:05:47;;;;;;;30.58;16.25;;;3.90;99.90;;;;;;5075619;28;20212;-70
2024/01/06 06:08:14;;;;;;;25.30;15.77;;;3.90;99.90;;;;;;5075105;28;20211;-62
2024/01/06 06:10:51;;;;;;;29.60;15.75;;;3.90;99.90;;;;;;5075353;28;20201;-64
2024/01/06 06:13:19;;;;;;;30.33;16.02;;;3.90;99.90;;;;;;5075182;28;20212;-64
2024/01/06 06:15:46;;;;;;;26.20;16.05;;;3.90;99.90;;;;;;5075487;28;20201;-65
2024/01/06 06:18:13;;;;;;;27.73;17.50;;;3.90;99.90;;;;;;5075135;28;20291;-65
2024/01/06 06:20:41;;;;;;;29.77;17.25;;;3.90;99.90;;;;;;5075297;28;20200;-65
2024/01/06 06:23:08;;;;;;;26.67;16.02;;;3.90;99.90;;;;;;5074901;28;20274;-66
2024/01/06 06:25:35;;;;;;;31.42;17.05;;;3.90;99.90;;;;;;5075010;28;20201;-64
2024/01/06 06:28:03;;;;;;;31.55;17.83;;;3.80;99.90;;;;;;5075225;28;20198;-65
2024/01/06 06:30:31;;;;;;;27.08;16.13;;;3.80;99.90;;;;;;5075784;28;20216;-64
2024/01/06 06:32:58;;;;;;;31.88;16.70;;;3.80;99.90;;;;;;5080551;28;20221;-65
2024/01/06 06:35:25;;;;;;;32.25;18.63;;;3.80;99.90;;;;;;5082848;28;20663;-65
2024/01/06 06:37:52;;;;;;;28.75;16.92;;;3.80;99.90;;;;;;5084281;28;20508;-65
2024/01/06 06:40:19;;;;;;;29.92;16.55;;;3.80;99.90;;;;;;5082088;28;20615;-65
2024/01/06 06:42:46;;;;;;;29.38;17.45;;;3.80;99.90;;;;;;5082688;28;20706;-66
2024/01/06 06:45:13;;;;;;;31.40;17.85;;;3.80;99.90;;;;;;5081640;28;20590;-65
2024/01/06 06:47:41;;;;;;;30.55;17.42;;;3.80;99.90;;;;;;5083883;28;20288;-65
2024/01/06 06:50:09;;;;;;;27.23;16.73;;;3.80;99.90;;;;;;5085641;28;20217;-65
2024/01/06 06:52:35;;;;;;;33.05;17.48;;;3.70;99.90;;;;;;5084691;28;20258;-64
2024/01/06 06:55:02;;;;;;;30.13;16.40;;;3.70;99.90;;;;;;5083236;28;20201;-64
2024/01/06 06:57:29;;;;;;;33.65;18.88;;;3.70;99.90;;;;;;5082017;28;20205;-65
2024/01/06 06:59:56;;;;;;;30.73;17.42;;;3.70;99.90;;;;;;5079115;28;20576;-66
2024/01/06 07:02:23;;;;;;;30.60;17.20;;;3.70;99.90;;;;;;5079300;28;20219;-65
2024/01/06 07:04:51;;;;;;;31.73;18.40;;;3.70;99.90;;;;;;5077957;28;20679;-65
2024/01/06 07:07:18;;;;;;;31.80;16.27;;;3.70;99.90;;;;;;5077350;28;20201;-64
2024/01/06 07:09:44;;;;;;;34.75;17.90;;;3.70;99.90;;;;;;5076705;28;20205;-64
2024/01/06 07:12:11;;;;;;;31.63;17.35;;;3.70;99.90;;;;;;5076135;28;20228;-64
2024/01/06 07:14:38;;;;;;;35.95;17.92;;;3.80;99.90;;;;;;5076708;28;20208;-65
2024/01/06 07:17:05;;;;;;;34.10;17.55;;;3.80;99.90;;;;;;5077757;28;20244;-65
2024/01/06 07:19:32;;;;;;;36.70;18.42;;;3.80;99.90;;;;;;5076315;28;20201;-65
2024/01/06 07:22:00;;;;;;;31.95;18.08;;;3.80;99.90;;;;;;5079859;28;20308;-65
2024/01/06 07:24:27;;;;;;;35.17;18.23;;;3.80;99.90;;;;;;5087736;28;20211;-65
2024/01/06 07:26:54;;;;;;;33.30;16.98;;;3.80;99.90;;;;;;5083010;28;20605;-64
2024/01/06 07:29:21;;;;;;;33.65;16.45;;;3.80;99.90;;;;;;5080658;28;20233;-65
2024/01/06 07:31:48;;;;;;;36.70;20.02;;;3.70;99.90;;;;;;5079791;28;20221;-65
2024/01/06 07:34:15;;;;;;;37.78;18.45;;;3.70;99.90;;;;;;5080135;28;20196;-65
2024/01/06 07:36:42;;;;;;;31.63;18.33;;;3.70;99.90;;;;;;5079927;28;20238;-64
2024/01/06 07:39:10;;;;;;;31.77;17.55;;;3.70;99.90;;;;;;5079492;28;20297;-64
2024/01/06 07:41:37;;;;;;;30.77;16.15;;;3.70;99.90;;;;;;5081788;28;20221;-65
2024/01/06 07:44:04;;;;;;;32.65;18.17;;;3.70;99.90;;;;;;5080726;28;20205;-66
2024/01/06 07:46:32;;;;;;;32.03;19.05;;;3.70;99.90;;;;;;5079367;28;20208;-65
2024/01/06 07:48:58;;;;;;;31.15;17.13;;;3.70;99.90;;;;;;5080406;28;20201;-64
2024/01/06 07:51:26;;;;;;;36.10;19.52;;;3.70;99.90;;;;;;5083263;28;20221;-64
2024/01/06 07:53:52;;;;;;;30.00;17.25;;;3.70;99.90;;;;;;5085559;28;20231;-65
2024/01/06 07:56:21;;;;;;;33.97;17.17;;;3.70;99.90;;;;;;5084696;28;20201;-65
2024/01/06 07:58:47;;;;;;;31.98;18.60;;;3.70;99.90;;;;;;5084421;28;20396;-65
2024/01/06 08:01:14;;;;;;;35.83;18.92;;;3.70;99.90;;;;;;5086544;28;20248;-66
2024/01/06 08:03:41;;;;;;;30.35;17.17;;;3.70;99.90;;;;;;5086142;28;20228;-66
2024/01/06 08:06:08;;;;;;;32.28;17.55;;;3.70;99.90;;;;;;5086027;28;20213;-65
2024/01/06 08:08:35;;;;;;;38.55;19.00;;;3.70;99.90;;;;;;5086130;28;20228;-65
2024/01/06 08:11:02;;;;;;;39.88;19.17;;;3.60;99.90;;;;;;5086981;28;20287;-65
2024/01/06 08:13:29;;;;;;;34.05;17.83;;;3.60;99.90;;;;;;5085664;28;20204;-65
2024/01/06 08:15:56;;;;;;;39.40;18.35;;;3.60;99.90;;;;;;5086045;28;20270;-65
2024/01/06 08:18:23;;;;;;;34.70;18.10;;;3.60;99.90;;;;;;5086342;28;20200;-65
2024/01/06 08:20:50;;;;;;;34.67;20.17;;;3.50;99.90;;;;;;5086204;28;20221;-65
2024/01/06 08:23:18;;;;;;;37.20;18.70;;;3.50;99.90;;;;;;5081815;28;20208;-65
2024/01/06 08:25:46;;;;;;;36.75;20.25;;;3.50;99.90;;;;;;5081126;28;20215;-66
2024/01/06 08:28:14;;;;;;;38.13;19.70;;;3.50;99.90;;;;;;5081260;28;20200;-65
2024/01/06 08:30:42;;;;;;;35.22;19.40;;;3.50;99.90;;;;;;5082879;28;20247;-66
2024/01/06 08:33:09;;;;;;;37.47;19.42;;;3.50;99.90;;;;;;5085204;28;20228;-65
2024/01/06 08:35:40;;;;;;;36.78;19.27;;;3.50;99.90;;;;;;5083422;28;20200;-65
2024/01/06 08:38:06;;;;;;;40.30;20.05;;;3.50;99.90;;;;;;5084755;28;20200;-66
2024/01/06 08:40:33;;;;;;;37.42;18.15;;;3.50;99.90;;;;;;5084689;28;20292;-66
2024/01/06 08:43:00;;;;;;;36.75;19.58;;;3.50;99.90;;;;;;5084308;28;20312;-66
2024/01/06 08:45:27;;;;;;;36.13;19.23;;;3.50;99.90;;;;;;5087285;28;20295;-66
2024/01/06 08:47:55;;;;;;;33.17;17.10;;;3.50;99.90;;;;;;5078286;28;20431;-65
2024/01/06 08:50:22;;;;;;;33.63;17.33;;;3.50;99.90;;;;;;5078333;28;20205;-65
2024/01/06 08:52:48;;;;;;;36.08;17.95;;;3.50;99.90;;;;;;5080767;28;20227;-65
2024/01/06 08:55:16;;;;;;;35.42;17.38;;;3.60;99.90;;;;;;5082691;28;20204;-66
2024/01/06 08:57:43;;;;;;;37.17;17.08;;;3.60;99.90;;;;;;5086163;28;20205;-65
2024/01/06 09:00:10;;;;;;;32.55;16.52;;;3.60;99.90;;;;;;5088827;28;20292;-66
2024/01/06 09:02:38;;;;;;;28.08;16.23;;;3.60;99.90;;;;;;5090047;28;20330;-66
2024/01/06 09:05:07;;;;;;;30.17;16.88;;;3.60;99.90;;;;;;5093451;28;20661;-65
2024/01/06 09:07:33;;;;;;;28.98;14.80;;;3.60;99.90;;;;;;5087196;28;20288;-65
2024/01/06 09:10:00;;;;;;;29.92;16.15;;;3.60;99.90;;;;;;5084849;28;20216;-65
2024/01/06 09:12:27;;;;;;;27.95;15.38;;;3.60;99.90;;;;;;5084802;28;20235;-64
2024/01/06 09:14:54;;;;;;;30.10;16.67;;;3.60;99.90;;;;;;5086449;28;20215;-66
2024/01/06 09:17:22;;;;;;;29.23;15.95;;;3.60;99.90;;;;;;5090852;28;20212;-66
2024/01/06 09:19:49;;;;;;;28.00;16.00;;;3.60;99.90;;;;;;5088382;28;20216;-66
2024/01/06 09:22:17;;;;;;;31.90;16.63;;;3.60;99.90;;;;;;5087736;28;20225;-65
2024/01/06 09:24:44;;;;;;;30.02;14.85;;;3.60;99.90;;;;;;5088316;28;20205;-66
2024/01/06 09:27:10;;;;;;;29.17;15.75;;;3.60;99.90;;;;;;5090575;28;20197;-66
2024/01/06 09:29:37;;;;;;;28.48;16.63;;;3.50;99.90;;;;;;5088986;28;20204;-66
2024/01/06 09:32:05;;;;;;;31.20;16.70;;;3.50;99.90;;;;;;5085975;28;20228;-67
2024/01/06 09:34:31;;;;;;;27.52;16.27;;;3.50;99.90;;;;;;5089538;28;20356;-67
2024/01/06 09:36:58;;;;;;;28.23;16.20;;;3.50;99.90;;;;;;5091156;28;20265;-65
2024/01/06 09:39:26;;;;;;;27.75;17.08;;;3.50;99.90;;;;;;5090559;28;20290;-66
2024/01/06 09:41:53;;;;;;;27.58;16.30;;;3.50;99.90;;;;;;5080200;28;20721;-66
2024/01/06 09:44:20;;;;;;;24.90;15.85;;;3.50;99.90;;;;;;5078440;28;20205;-65
2024/01/06 09:46:48;;;;;;;25.80;15.40;;;3.50;99.90;;;;;;5077025;28;20212;-66
2024/01/06 09:49:15;;;;;;;23.13;14.68;;;3.50;99.90;;;;;;5077311;28;20201;-65
2024/01/06 09:51:42;;;;;;;28.55;17.13;;;3.50;99.90;;;;;;5076499;28;20225;-65
2024/01/06 09:54:10;;;;;;;24.05;14.52;;;3.50;99.90;;;;;;5076832;28;20220;-64
2024/01/06 09:56:40;;;;;;;21.70;14.05;;;3.50;99.90;;;;;;5077120;28;20204;-65
2024/01/06 09:59:07;;;;;;;25.17;14.35;;;3.50;99.90;;;;;;5076971;28;20201;-66
2024/01/06 10:01:34;;;;;;;19.20;12.90;;;3.50;99.90;;;;;;5076974;28;20224;-64
2024/01/06 10:04:00;;;;;;;23.77;13.85;;;3.50;99.90;;;;;;5078447;28;20212;-65
2024/01/06 10:06:27;;;;;;;25.95;14.05;;;3.60;99.90;;;;;;5076206;28;20208;-66
2024/01/06 10:08:54;;;;;;;24.90;13.50;;;3.60;99.90;;;;;;5076037;28;20211;-66
2024/01/06 10:11:23;;;;;;;20.17;13.55;;;3.60;99.90;;;;;;5075629;28;20239;-65
2024/01/06 10:13:52;;;;;;;22.77;13.48;;;3.60;99.90;;;;;;5077452;28;20225;-66
2024/01/06 10:16:20;;;;;;;19.88;12.73;;;3.60;99.90;;;;;;5076676;28;20201;-66
2024/01/06 10:18:47;;;;;;;20.85;13.23;;;3.60;99.90;;;;;;5078070;28;20284;-65
2024/01/06 10:21:17;;;;;;;23.30;14.27;;;3.60;99.90;;;;;;5076548;28;20217;-63
2024/01/06 10:23:45;;;;;;;22.05;14.07;;;3.60;99.90;;;;;;5078482;28;20192;-64
2024/01/06 10:26:14;;;;;;;23.08;13.18;;;3.60;99.90;;;;;;5075922;28;20205;-66
2024/01/06 10:28:41;;;;;;;26.48;15.63;;;3.60;99.90;;;;;;5075226;28;20232;-65
2024/01/06 10:31:09;;;;;;;22.52;13.50;;;3.60;99.90;;;;;;5075735;28;20286;-66
2024/01/06 10:33:36;;;;;;;22.48;14.13;;;3.60;99.90;;;;;;5075076;28;20589;-64
2024/01/06 10:36:05;;;;;;;23.30;15.45;;;3.60;99.90;;;;;;5075097;28;20211;-65
2024/01/06 10:38:31;;;;;;;21.90;12.82;;;3.60;99.90;;;;;;5075268;28;20295;-66
2024/01/06 10:40:59;;;;;;;21.05;12.13;;;3.60;99.90;;;;;;5074886;28;20207;-65
2024/01/06 10:43:28;;;;;;;18.33;12.13;;;3.60;99.90;;;;;;5074852;28;20573;-63
2024/01/06 10:45:57;;;;;;;19.95;12.73;;;3.60;99.90;;;;;;5074882;28;20674;-65
2024/01/06 10:48:27;;;;;;;23.52;13.45;;;3.60;99.90;;;;;;5074732;28;20197;-66
2024/01/06 10:50:56;;;;;;;19.83;12.52;;;3.50;99.90;;;;;;5075016;28;20208;-66
2024/01/06 10:53:23;;;;;;;23.25;12.50;;;3.50;99.90;;;;;;5074510;28;20255;-65
2024/01/06 10:55:51;;;;;;;21.90;13.45;;;3.40;99.90;;;;;;5074691;28;20674;-64
2024/01/06 10:58:18;;;;;;;27.88;13.93;;;3.40;99.90;;;;;;5074601;28;20241;-64
2024/01/06 11:00:45;;;;;;;24.58;15.00;;;3.40;99.90;;;;;;5075060;28;20567;-65
2024/01/06 11:03:14;;;;;;;26.40;14.00;;;3.40;99.90;;;;;;5074524;28;20288;-64
2024/01/06 11:05:42;;;;;;;22.70;13.60;;;3.40;99.90;;;;;;5074539;28;20555;-64
2024/01/06 11:08:10;;;;;;;22.63;13.95;;;3.40;99.90;;;;;;5074151;28;20205;-65
2024/01/06 11:10:38;;;;;;;27.88;14.73;;;3.30;99.90;;;;;;5074258;28;20209;-66
2024/01/06 11:13:11;;;;;;;22.38;13.85;;;3.30;99.90;;;;;;5073986;28;20225;-65
2024/01/06 11:15:44;;;;;;;29.10;17.52;;;3.30;99.90;;;;;;5074944;28;20635;-66
2024/01/06 11:18:32;;;;;;;22.88;14.68;;;3.30;99.90;;;;;;5078161;28;20553;-66
2024/01/06 11:21:18;;;;;;;32.10;17.30;;;3.20;99.90;;;;;;5081677;28;20537;-66
2024/01/06 11:23:46;;;;;;;31.63;17.88;;;3.20;99.90;;;;;;5081788;28;20850;-65
2024/01/06 11:26:15;;;;;;;30.35;15.75;;;3.20;99.90;;;;;;5081355;28;20259;-67
2024/01/06 11:28:46;;;;;;;26.00;14.77;;;3.20;99.90;;;;;;5080514;28;20209;-66
2024/01/06 11:31:13;;;;;;;25.08;15.68;;;3.10;99.90;;;;;;5077555;28;20217;-68
2024/01/06 11:33:43;;;;;;;23.20;14.13;;;3.10;99.90;;;;;;5077852;28;20231;-68
2024/01/06 11:36:10;;;;;;;30.63;15.90;;;3.10;99.90;;;;;;5079983;28;20216;-69
2024/01/06 11:38:40;;;;;;;24.65;14.07;;;3.10;99.90;;;;;;5083872;28;20201;-65
2024/01/06 11:41:08;;;;;;;29.08;15.98;;;3.10;99.90;;;;;;5082810;28;20230;-66
2024/01/06 11:43:36;;;;;;;22.85;14.20;;;3.10;99.90;;;;;;5081458;28;20207;-66
2024/01/06 11:46:06;;;;;;;24.90;14.98;;;3.10;99.90;;;;;;5081592;28;20205;-67
2024/01/06 11:48:33;;;;;;;23.88;13.75;;;3.00;99.90;;;;;;5077279;28;20201;-67
2024/01/06 11:51:00;;;;;;;24.83;13.85;;;3.00;99.90;;;;;;5074314;28;20633;-67
2024/01/06 11:53:28;;;;;;;21.95;12.85;;;3.00;99.90;;;;;;5073765;28;20695;-66
2024/01/06 11:55:56;;;;;;;26.27;14.43;;;2.90;99.90;;;;;;5074179;28;20204;-66
2024/01/06 11:58:23;;;;;;;26.65;13.77;;;2.90;99.90;;;;;;5073877;28;20216;-65
2024/01/06 12:00:56;;;;;;;23.40;15.20;;;2.90;99.90;;;;;;5074338;28;20213;-66
2024/01/06 12:03:24;;;;;;;26.25;15.30;;;2.90;99.90;;;;;;5074172;28;20186;-66
2024/01/06 12:06:01;;;;;;;19.65;13.55;;;2.90;99.90;;;;;;5073799;28;20208;-65
2024/01/06 12:08:28;;;;;;;27.73;13.48;;;2.90;99.90;;;;;;5074223;28;20282;-65
2024/01/06 12:11:04;;;;;;;24.92;14.77;;;2.90;99.90;;;;;;5073351;28;20593;-66
2024/01/06 12:13:32;;;;;;;18.98;12.18;;;2.90;99.90;;;;;;5073962;28;20256;-66
2024/01/06 12:15:59;;;;;;;22.38;13.70;;;2.90;99.90;;;;;;5073376;28;20207;-66
2024/01/06 12:18:26;;;;;;;21.65;12.05;;;2.80;99.90;;;;;;5073649;28;20308;-67
2024/01/06 12:20:53;;;;;;;24.75;13.38;;;2.80;99.90;;;;;;5073601;28;20197;-65
2024/01/06 12:23:27;;;;;;;22.50;13.13;;;2.80;99.90;;;;;;5073540;28;20207;-66
2024/01/06 12:25:54;;;;;;;24.10;13.95;;;2.80;99.90;;;;;;5073648;28;20201;-65
2024/01/06 12:28:22;;;;;;;28.02;14.18;;;2.70;99.90;;;;;;5073723;28;20212;-66
2024/01/06 12:30:49;;;;;;;24.00;12.27;;;2.70;99.90;;;;;;5072999;28;20736;-66
2024/01/06 12:33:16;;;;;;;25.60;13.88;;;2.70;99.90;;;;;;5074698;28;20197;-65
2024/01/06 12:35:43;;;;;;;28.00;14.18;;;2.70;99.90;;;;;;5077389;28;20205;-65
2024/01/06 12:38:10;;;;;;;24.83;15.35;;;2.70;99.90;;;;;;5077450;28;20209;-66
2024/01/06 12:40:37;;;;;;;26.95;14.95;;;2.70;99.90;;;;;;5077529;28;20201;-65